Time;durP1;ratioP1;P1;durP2;ratioP2;P2;SDS_P1;SDS_P2;PMS_P1;PMS_P2;Temp;Humidity;BMP_temperature;BMP_pressure;BME280_temperature;BME280_humidity;BME280_pressure;Samples;Min_cycle;Max_cycle;Signal;HPM_P1;HPM_P2
2022/12/20 00:01:21;;;;;;;;;;;0.60;99.90;;;;;;5095696;28;20071;-60
2022/12/20 00:03:50;;;;;;;24.93;11.60;;;0.40;99.90;;;;;;5091371;28;19942;-60
2022/12/20 00:06:18;;;;;;;25.27;11.73;;;0.30;99.90;;;;;;5096824;28;20063;-60
2022/12/20 00:08:45;;;;;;;24.98;10.68;;;0.20;99.90;;;;;;5100521;28;20525;-60
2022/12/20 00:11:12;;;;;;;22.83;11.73;;;0.20;99.90;;;;;;5100354;28;20574;-60
2022/12/20 00:13:39;;;;;;;26.50;12.93;;;0.10;99.90;;;;;;5093150;28;20084;-60
2022/12/20 00:16:14;;;;;;;32.13;14.80;;;0.10;99.90;;;;;;5111524;28;20097;-60
2022/12/20 00:18:41;;;;;;;33.90;13.93;;;0.20;99.90;;;;;;5109930;28;20036;-60
2022/12/20 00:21:10;;;;;;;;;;;0.30;99.90;;;;;;5112188;28;20044;-60
2022/12/20 00:23:37;;;;;;;;;;;0.50;99.90;;;;;;5107839;28;19920;-60
2022/12/20 00:26:05;;;;;;;32.05;14.90;;;0.50;99.90;;;;;;5111884;28;19924;-60
2022/12/20 00:28:32;;;;;;;32.80;14.73;;;0.60;99.90;;;;;;5083270;28;20071;-60
2022/12/20 00:31:00;;;;;;;31.48;15.60;;;0.70;99.90;;;;;;5089794;28;20132;-60
2022/12/20 00:33:27;;;;;;;29.25;15.10;;;0.70;99.90;;;;;;5081289;28;20555;-60
2022/12/20 00:35:56;;;;;;;34.20;15.70;;;0.70;99.90;;;;;;5095237;28;20040;-60
2022/12/20 00:38:24;;;;;;;34.47;15.25;;;0.70;99.90;;;;;;5092179;28;20052;-60
2022/12/20 00:41:05;;;;;;;33.03;13.68;;;0.70;99.90;;;;;;5089092;28;20056;-60
2022/12/20 00:43:33;;;;;;;31.52;15.30;;;0.70;99.90;;;;;;5100398;28;20059;-60
2022/12/20 00:46:02;;;;;;;30.58;15.05;;;0.70;99.90;;;;;;5093256;28;20040;-61
2022/12/20 00:48:31;;;;;;;36.63;14.80;;;0.70;99.90;;;;;;5093440;28;20068;-60
2022/12/20 00:50:59;;;;;;;;;;;0.60;99.90;;;;;;5087549;28;20488;-60
2022/12/20 00:53:27;;;;;;;29.67;13.38;;;0.70;99.90;;;;;;5086964;28;19923;-60
2022/12/20 00:55:54;;;;;;;36.83;15.13;;;0.70;99.90;;;;;;5092620;28;20101;-60
2022/12/20 00:58:21;;;;;;;31.02;14.55;;;0.70;99.90;;;;;;5085822;28;20054;-60
2022/12/20 01:00:48;;;;;;;35.35;15.63;;;0.60;99.90;;;;;;5080670;28;20048;-60
2022/12/20 01:03:23;;;;;;;30.42;14.73;;;0.60;99.90;;;;;;5094985;28;20046;-60
2022/12/20 01:05:55;;;;;;;29.98;14.60;;;0.60;99.90;;;;;;5078438;28;20055;-60
2022/12/20 01:08:24;;;;;;;30.27;15.27;;;0.60;99.90;;;;;;5089017;28;20047;-60
2022/12/20 01:11:07;;;;;;;24.30;12.90;;;0.60;99.90;;;;;;5087086;28;20082;-60
2022/12/20 01:13:36;;;;;;;27.42;13.82;;;0.60;99.90;;;;;;5090947;28;20040;-60
2022/12/20 01:16:06;;;;;;;24.92;13.40;;;0.50;99.90;;;;;;5091180;28;20492;-61
2022/12/20 01:18:33;;;;;;;29.33;14.68;;;0.50;99.90;;;;;;5098393;28;20050;-60
2022/12/20 01:21:05;;;;;;;30.23;15.05;;;0.50;99.90;;;;;;5090919;28;20036;-60
2022/12/20 01:23:31;;;;;;;30.63;14.68;;;0.50;99.90;;;;;;5074469;28;20069;-60
2022/12/20 01:26:00;;;;;;;30.25;13.30;;;0.50;99.90;;;;;;5072694;28;20044;-60
2022/12/20 01:28:27;;;;;;;31.52;14.77;;;0.50;99.90;;;;;;5096224;28;20090;-60
2022/12/20 01:30:54;;;;;;;26.38;13.27;;;0.50;99.90;;;;;;5083445;28;20040;-60
2022/12/20 01:33:22;;;;;;;29.25;13.30;;;0.50;99.90;;;;;;5075376;28;20393;-61
2022/12/20 01:35:53;;;;;;;;;;;0.50;99.90;;;;;;5099856;22;20040;-61
2022/12/20 01:38:20;;;;;;;30.30;13.52;;;0.50;99.90;;;;;;5072745;28;20561;-61
2022/12/20 01:40:47;;;;;;;32.78;14.93;;;0.50;99.90;;;;;;5067753;28;20109;-61
2022/12/20 01:43:16;;;;;;;31.38;14.85;;;0.60;99.90;;;;;;5094328;28;20036;-63
2022/12/20 01:45:43;;;;;;;31.67;14.25;;;0.60;99.90;;;;;;5084958;28;20051;-63
2022/12/20 01:48:11;;;;;;;34.63;15.05;;;0.50;99.90;;;;;;5077934;28;20071;-63
2022/12/20 01:50:37;;;;;;;31.80;15.10;;;0.50;99.90;;;;;;5072341;28;20454;-63
2022/12/20 01:53:04;;;;;;;33.13;15.52;;;0.50;99.90;;;;;;5074498;28;20112;-60
2022/12/20 01:55:31;;;;;;;;;;;0.50;99.90;;;;;;5090266;28;20374;-63
2022/12/20 01:58:05;;;;;;;26.98;12.40;;;0.50;99.90;;;;;;5073641;28;19926;-63
2022/12/20 02:00:32;;;;;;;16.65;7.28;;;0.50;99.90;;;;;;5075818;28;20036;-61
2022/12/20 02:03:03;;;;;;;14.75;6.30;;;0.50;99.90;;;;;;5083653;28;20533;-63
2022/12/20 02:05:35;;;;;;;16.27;7.93;;;0.50;99.90;;;;;;5067303;28;20407;-63
2022/12/20 02:08:03;;;;;;;17.63;7.70;;;0.40;99.90;;;;;;5075738;28;20059;-63
2022/12/20 02:11:05;;;;;;;17.45;8.75;;;0.50;99.90;;;;;;5064969;28;20412;-62
2022/12/20 02:13:58;;;;;;;19.58;9.02;;;0.50;99.90;;;;;;5074722;28;20493;-63
2022/12/20 02:16:28;;;;;;;18.88;6.82;;;0.50;99.90;;;;;;5094014;28;20040;-63
2022/12/20 02:19:21;;;;;;;10.77;5.53;;;0.50;99.90;;;;;;5087716;28;20029;-63
2022/12/20 02:22:04;;;;;;;14.30;5.55;;;0.50;99.90;;;;;;5037472;28;20053;-63
2022/12/20 02:24:53;;;;;;;11.25;5.60;;;0.50;99.90;;;;;;5055090;28;20036;-63
2022/12/20 02:27:50;;;;;;;14.35;6.28;;;0.50;99.90;;;;;;5055666;28;20132;-63
2022/12/20 02:30:19;;;;;;;15.25;8.10;;;0.50;99.90;;;;;;5070889;28;20051;-63
2022/12/20 02:33:02;;;;;;;25.00;10.85;;;0.50;99.90;;;;;;5070402;28;20048;-63
2022/12/20 02:35:32;;;;;;;29.00;13.55;;;0.60;99.90;;;;;;5055173;28;20037;-63
2022/12/20 02:38:03;;;;;;;27.98;13.18;;;0.50;99.90;;;;;;5054425;28;20052;-63
2022/12/20 02:40:39;;;;;;;28.05;11.77;;;0.60;99.90;;;;;;5056046;28;20048;-62
2022/12/20 02:45:14;;;;;;;24.77;11.23;;;0.50;99.90;;;;;;5053866;28;20520;-63
2022/12/20 02:45:56;;;;;;;;;;;0.40;99.90;;;;;;5055326;28;20512;-63
2022/12/20 02:48:26;;;;;;;22.67;9.18;;;0.30;99.90;;;;;;5055203;28;19920;-63
2022/12/20 02:54:40;;;;;;;40.38;16.73;;;0.30;99.90;;;;;;5072876;28;20484;-62
2022/12/20 02:57:26;;;;;;;37.38;17.70;;;0.40;99.90;;;;;;5074520;28;20513;-62
2022/12/20 03:00:17;;;;;;;27.67;12.95;;;0.30;99.90;;;;;;5074757;28;20113;-61
2022/12/20 03:05:34;;;;;;;35.28;17.95;;;0.30;99.90;;;;;;5074676;28;20094;-61
2022/12/20 03:08:01;;;;;;;44.58;17.02;;;0.40;99.90;;;;;;5053883;28;20064;-61
2022/12/20 03:10:28;;;;;;;25.70;13.77;;;0.40;99.90;;;;;;5057869;28;20099;-61
2022/12/20 03:12:55;;;;;;;25.75;11.23;;;0.40;99.90;;;;;;5071257;28;20513;-63
2022/12/20 03:15:22;;;;;;;23.73;11.05;;;0.50;99.90;;;;;;5053078;28;20044;-61
2022/12/20 03:17:52;;;;;;;22.10;11.15;;;0.30;99.90;;;;;;5054130;28;20496;-62
2022/12/20 03:20:19;;;;;;;26.02;11.90;;;0.20;99.90;;;;;;5057914;28;20416;-62
2022/12/20 03:22:46;;;;;;;19.77;9.30;;;0.20;99.90;;;;;;5054350;28;20487;-61
2022/12/20 03:25:13;;;;;;;31.80;13.05;;;0.20;99.90;;;;;;5072399;28;20044;-61
2022/12/20 03:27:40;;;;;;;;;;;0.10;99.90;;;;;;5072039;28;20036;-62
2022/12/20 03:30:08;;;;;;;30.67;12.87;;;0.10;99.90;;;;;;5053936;28;19920;-62
2022/12/20 03:32:36;;;;;;;34.33;16.13;;;0.10;99.90;;;;;;5053618;28;20041;-62
2022/12/20 03:35:03;;;;;;;38.60;17.20;;;0.00;99.90;;;;;;5072402;28;20036;-62
2022/12/20 03:37:35;;;;;;;40.13;17.23;;;0.10;99.90;;;;;;5088765;28;20031;-62
2022/12/20 03:40:04;;;;;;;36.50;16.92;;;0.10;99.90;;;;;;5054342;28;20044;-62
2022/12/20 03:42:32;;;;;;;33.25;17.08;;;0.10;99.90;;;;;;5061170;28;20051;-61
2022/12/20 03:44:58;;;;;;;34.42;15.77;;;0.10;99.90;;;;;;5060805;28;20082;-62
2022/12/20 03:47:28;;;;;;;43.88;18.88;;;0.10;99.90;;;;;;5054136;28;20114;-61
2022/12/20 03:49:55;;;;;;;;;;;0.20;99.90;;;;;;5063653;28;20759;-62
2022/12/20 03:52:22;;;;;;;45.22;18.60;;;0.10;99.90;;;;;;5065397;28;19920;-62
2022/12/20 03:54:49;;;;;;;41.67;18.55;;;0.10;99.90;;;;;;5053724;28;20498;-61
2022/12/20 03:57:18;;;;;;;37.42;17.55;;;0.10;99.90;;;;;;5070935;28;20047;-61
2022/12/20 03:59:48;;;;;;;36.10;16.48;;;0.00;99.90;;;;;;5053645;28;20044;-61
2022/12/20 04:02:17;;;;;;;38.38;17.45;;;0.00;99.90;;;;;;5068116;28;20123;-62
2022/12/20 04:04:44;;;;;;;37.75;17.33;;;0.00;99.90;;;;;;5083549;28;20169;-61
2022/12/20 04:07:13;;;;;;;36.33;17.55;;;0.00;99.90;;;;;;5073528;28;20094;-61
2022/12/20 04:09:44;;;;;;;45.58;18.55;;;0.00;99.90;;;;;;5069296;28;20048;-61
2022/12/20 04:12:12;;;;;;;38.15;16.70;;;0.00;99.90;;;;;;5052975;28;20127;-62
2022/12/20 04:14:39;;;;;;;38.90;17.35;;;0.00;99.90;;;;;;5053317;28;20048;-62
2022/12/20 04:17:06;;;;;;;;;;;0.00;99.90;;;;;;5054282;28;20040;-61
2022/12/20 04:19:33;;;;;;;31.08;15.43;;;0.00;99.90;;;;;;5070469;28;19920;-63
2022/12/20 04:22:02;;;;;;;33.67;16.08;;;0.00;99.90;;;;;;5066104;28;20051;-63
2022/12/20 04:24:45;;;;;;;34.80;16.95;;;0.10;99.90;;;;;;5088777;28;20135;-61
2022/12/20 04:27:22;;;;;;;30.55;12.77;;;0.10;99.90;;;;;;5053310;28;20135;-63
2022/12/20 04:29:51;;;;;;;41.40;17.10;;;0.10;99.90;;;;;;5072303;28;20058;-63
2022/12/20 04:32:19;;;;;;;36.75;17.33;;;0.10;99.90;;;;;;5072881;28;20044;-63
2022/12/20 04:34:46;;;;;;;35.70;16.20;;;0.00;99.90;;;;;;5060420;28;20044;-63
2022/12/20 04:37:12;;;;;;;37.35;17.08;;;0.00;99.90;;;;;;5072921;28;20040;-63
2022/12/20 04:39:50;;;;;;;39.90;17.50;;;0.00;99.90;;;;;;5091235;28;20044;-63
2022/12/20 04:42:24;;;;;;;34.78;16.38;;;0.00;99.90;;;;;;5062964;28;20497;-63
2022/12/20 04:44:52;;;;;;;36.25;17.65;;;-0.10;99.90;;;;;;5072631;28;20051;-63
2022/12/20 04:47:23;;;;;;;37.95;17.55;;;-0.10;99.90;;;;;;5072572;28;20146;-63
2022/12/20 04:49:51;;;;;;;35.08;16.65;;;-0.10;99.90;;;;;;5089634;28;20036;-63
2022/12/20 04:55:13;;;;;;;37.00;16.38;;;-0.10;99.90;;;;;;5052391;28;20036;-63
2022/12/20 04:57:40;;;;;;;35.40;16.80;;;-0.10;99.90;;;;;;5053133;28;20474;-61
2022/12/20 05:00:07;;;;;;;35.85;17.45;;;-0.20;99.90;;;;;;5063644;28;20131;-61
2022/12/20 05:02:37;;;;;;;31.75;15.10;;;-0.20;99.90;;;;;;5059221;28;20040;-61
2022/12/20 05:05:08;;;;;;;28.52;15.15;;;-0.20;99.90;;;;;;5073587;28;20050;-61
2022/12/20 05:07:44;;;;;;;33.80;15.57;;;-0.10;99.90;;;;;;5071965;28;20078;-61
2022/12/20 05:10:11;;;;;;;37.42;16.05;;;-0.20;99.90;;;;;;5071713;28;20054;-62
2022/12/20 05:12:39;;;;;;;33.20;14.88;;;-0.10;99.90;;;;;;5057513;28;20555;-61
2022/12/20 05:15:08;;;;;;;27.10;14.43;;;-0.10;99.90;;;;;;5066436;28;20072;-61
2022/12/20 05:17:35;;;;;;;25.90;12.38;;;0.00;99.90;;;;;;5058369;28;20138;-61
2022/12/20 05:20:05;;;;;;;27.30;13.35;;;0.10;99.90;;;;;;5065783;28;20040;-61
2022/12/20 05:28:05;;;;;;;;;;;0.10;99.90;;;;;;5071216;28;20136;-61
2022/12/20 05:30:34;;;;;;;27.75;12.32;;;0.10;99.90;;;;;;5068289;28;19964;-61
2022/12/20 05:33:02;;;;;;;24.00;12.52;;;0.20;99.90;;;;;;5066543;28;20054;-61
2022/12/20 05:35:30;;;;;;;27.55;13.02;;;0.30;99.90;;;;;;5064935;28;20290;-61
2022/12/20 05:38:04;;;;;;;30.73;16.23;;;0.30;99.90;;;;;;5055378;28;20158;-61
2022/12/20 05:40:32;;;;;;;30.55;16.50;;;0.30;99.90;;;;;;5057827;28;20036;-61
2022/12/20 05:42:59;;;;;;;25.65;13.98;;;0.30;99.90;;;;;;5052134;28;20036;-61
2022/12/20 05:45:46;;;;;;;28.73;13.82;;;-0.30;99.90;;;;;;5078354;28;20056;-61
2022/12/20 05:48:15;;;;;;;30.65;13.45;;;0.30;99.90;;;;;;5059644;28;20110;-61
2022/12/20 05:50:43;;;;;;;25.38;13.63;;;0.20;99.90;;;;;;5072992;28;20079;-61
2022/12/20 05:53:30;;;;;;;21.80;10.07;;;0.20;99.90;;;;;;5089048;28;20050;-61
2022/12/20 05:56:01;;;;;;;23.30;12.93;;;0.20;99.90;;;;;;5061040;28;20044;-62
2022/12/20 05:58:31;;;;;;;25.17;12.98;;;0.30;99.90;;;;;;5067458;28;20139;-62
2022/12/20 06:01:01;;;;;;;27.92;14.20;;;0.20;99.90;;;;;;5075436;28;20402;-61
2022/12/20 06:03:31;;;;;;;30.30;14.55;;;0.10;99.90;;;;;;5061546;28;20044;-61
2022/12/20 06:05:59;;;;;;;31.48;15.25;;;0.10;99.90;;;;;;5053804;28;20067;-61
2022/12/20 06:08:30;;;;;;;31.73;13.85;;;0.10;99.90;;;;;;5072731;28;20273;-61
2022/12/20 06:10:59;;;;;;;31.77;15.68;;;0.10;99.90;;;;;;5061581;28;20050;-61
2022/12/20 06:13:28;;;;;;;28.77;14.68;;;0.10;99.90;;;;;;5061732;28;20040;-61
2022/12/20 06:15:55;;;;;;;24.38;11.38;;;0.00;99.90;;;;;;5072703;28;20063;-61
2022/12/20 06:18:21;;;;;;;31.92;15.10;;;0.10;99.90;;;;;;5076012;28;20459;-63
2022/12/20 06:20:52;;;;;;;28.98;15.45;;;0.10;99.90;;;;;;5069262;28;20109;-63
2022/12/20 06:23:22;;;;;;;34.63;15.57;;;0.10;99.90;;;;;;5067299;28;20037;-63
2022/12/20 06:26:15;;;;;;;31.40;15.60;;;0.10;99.90;;;;;;5080243;28;20110;-63
2022/12/20 06:28:51;;;;;;;32.85;15.25;;;0.10;99.90;;;;;;5075028;28;20062;-63
2022/12/20 06:31:23;;;;;;;29.75;15.25;;;0.10;99.90;;;;;;5074370;28;20143;-63
2022/12/20 06:33:52;;;;;;;30.13;15.18;;;0.10;99.90;;;;;;5073735;28;20040;-61
2022/12/20 06:36:21;;;;;;;28.88;13.98;;;0.20;99.90;;;;;;5058049;28;20033;-63
2022/12/20 06:38:49;;;;;;;28.27;14.18;;;0.10;99.90;;;;;;5053729;28;20488;-61
2022/12/20 06:41:17;;;;;;;32.65;14.50;;;0.20;99.90;;;;;;5055065;28;20041;-63
2022/12/20 06:43:44;;;;;;;;;;;0.30;99.90;;;;;;5057645;28;20455;-61
2022/12/20 06:46:11;;;;;;;31.85;13.88;;;0.30;99.90;;;;;;5054787;28;20468;-63
2022/12/20 06:48:38;;;;;;;36.85;15.38;;;0.40;99.90;;;;;;5072413;28;20049;-61
2022/12/20 06:51:07;;;;;;;27.00;13.27;;;0.30;99.90;;;;;;5054342;28;20471;-62
2022/12/20 06:53:34;;;;;;;30.35;14.07;;;0.30;99.90;;;;;;5059364;28;20040;-61
2022/12/20 06:56:01;;;;;;;23.35;13.38;;;0.30;99.90;;;;;;5038540;28;20128;-61
2022/12/20 06:58:30;;;;;;;22.98;12.10;;;0.30;99.90;;;;;;5072441;28;20107;-62
2022/12/20 07:00:57;;;;;;;24.88;11.80;;;0.30;99.90;;;;;;5072976;28;20048;-62
2022/12/20 07:03:24;;;;;;;23.00;11.75;;;0.40;99.90;;;;;;5071267;28;20045;-61
2022/12/20 07:05:54;;;;;;;24.25;11.85;;;0.50;99.90;;;;;;5076228;28;20032;-62
2022/12/20 07:08:22;;;;;;;22.73;13.05;;;0.60;99.90;;;;;;5074303;28;20041;-62
2022/12/20 07:10:51;;;;;;;24.30;13.57;;;0.60;99.90;;;;;;5072427;28;20119;-61
2022/12/20 07:13:19;;;;;;;27.85;13.98;;;0.60;99.90;;;;;;5071741;28;20041;-61
2022/12/20 07:15:45;;;;;;;25.60;12.40;;;0.60;99.90;;;;;;5073052;28;20044;-62
2022/12/20 07:18:12;;;;;;;28.45;13.32;;;0.60;99.90;;;;;;5075250;28;20040;-61
2022/12/20 07:20:39;;;;;;;24.60;12.07;;;0.70;99.90;;;;;;5073952;28;20412;-61
2022/12/20 07:23:06;;;;;;;27.65;13.13;;;0.70;99.90;;;;;;5070681;28;20053;-61
2022/12/20 07:25:32;;;;;;;17.80;8.88;;;0.70;99.90;;;;;;5071177;28;20090;-61
2022/12/20 07:27:59;;;;;;;29.02;12.75;;;0.70;99.90;;;;;;5077223;28;20098;-62
2022/12/20 07:30:26;;;;;;;19.58;8.75;;;0.70;99.90;;;;;;5090945;28;20085;-61
2022/12/20 07:32:53;;;;;;;28.73;14.13;;;0.60;99.90;;;;;;5092014;28;20113;-61
2022/12/20 07:35:19;;;;;;;31.73;14.48;;;0.60;99.90;;;;;;5110766;22;20044;-60
2022/12/20 07:37:46;;;;;;;30.75;15.85;;;0.60;99.90;;;;;;5103297;28;20101;-60
2022/12/20 07:40:15;;;;;;;28.70;15.63;;;0.60;99.90;;;;;;5091015;28;20036;-61
2022/12/20 07:42:41;;;;;;;36.85;16.33;;;0.60;99.90;;;;;;5091967;28;20055;-60
2022/12/20 07:45:14;;;;;;;41.47;21.00;;;0.70;99.90;;;;;;5111317;27;20513;-60
2022/12/20 07:47:42;;;;;;;43.42;20.92;;;0.70;99.90;;;;;;5122481;27;20108;-60
2022/12/20 07:50:10;;;;;;;25.50;14.48;;;0.80;99.90;;;;;;5112221;28;20050;-60
2022/12/20 07:52:39;;;;;;;31.23;14.93;;;0.80;99.90;;;;;;5111940;27;20043;-60
2022/12/20 07:55:07;;;;;;;29.25;13.93;;;0.90;99.90;;;;;;5118255;27;20088;-60
2022/12/20 07:57:41;;;;;;;30.58;14.40;;;0.90;99.90;;;;;;5112338;28;20296;-60
2022/12/20 08:00:09;;;;;;;23.98;12.60;;;0.90;99.90;;;;;;5112513;28;20043;-60
2022/12/20 08:03:15;;;;;;;28.52;13.70;;;1.00;99.90;;;;;;5102630;27;20502;-60
2022/12/20 08:05:47;;;;;;;26.83;13.15;;;1.00;99.90;;;;;;5112667;27;20139;-60
2022/12/20 08:08:14;;;;;;;27.02;13.35;;;1.10;99.90;;;;;;5124340;27;20480;-60
2022/12/20 08:10:42;;;;;;;24.90;13.57;;;1.10;99.90;;;;;;5113059;27;20055;-60
2022/12/20 08:13:08;;;;;;;;;;;1.10;99.90;;;;;;5115930;27;20027;-60
2022/12/20 08:15:35;;;;;;;30.00;14.30;;;1.10;99.90;;;;;;5111946;28;19980;-60
2022/12/20 08:18:05;;;;;;;29.77;14.13;;;1.10;99.90;;;;;;5111136;28;20096;-60
2022/12/20 08:20:32;;;;;;;28.05;14.23;;;1.10;99.90;;;;;;5114619;27;20112;-60
2022/12/20 08:22:58;;;;;;;31.70;13.73;;;1.20;99.90;;;;;;5115962;27;20039;-60
2022/12/20 08:25:25;;;;;;;30.77;13.18;;;1.20;99.90;;;;;;5111667;28;20093;-60
2022/12/20 08:27:52;;;;;;;29.48;12.80;;;1.20;99.90;;;;;;5111900;28;20059;-60
2022/12/20 08:30:19;;;;;;;23.73;9.68;;;1.30;99.90;;;;;;5111974;28;20077;-60
2022/12/20 08:32:45;;;;;;;22.42;9.75;;;1.30;99.90;;;;;;5119029;27;20043;-61
2022/12/20 08:35:12;;;;;;;20.60;9.63;;;1.40;99.90;;;;;;5121879;27;20399;-60
2022/12/20 08:37:39;;;;;;;25.52;13.32;;;1.40;99.90;;;;;;5113129;27;20508;-60
2022/12/20 08:40:07;;;;;;;33.40;16.08;;;1.50;99.90;;;;;;5110472;28;20069;-60
2022/12/20 08:42:34;;;;;;;29.55;14.30;;;1.50;99.90;;;;;;5112162;27;20108;-60
2022/12/20 08:45:01;;;;;;;28.48;14.27;;;1.60;99.90;;;;;;5121937;27;20100;-60
2022/12/20 08:47:29;;;;;;;21.75;11.85;;;1.60;99.90;;;;;;5114534;28;20082;-60
2022/12/20 08:49:55;;;;;;;30.92;14.95;;;1.60;99.90;;;;;;5111538;28;20148;-61
2022/12/20 08:52:22;;;;;;;29.55;15.55;;;1.70;99.90;;;;;;5111253;28;20028;-60
2022/12/20 08:54:49;;;;;;;28.00;13.30;;;1.70;99.90;;;;;;5119158;28;20492;-60
2022/12/20 08:57:16;;;;;;;18.83;10.73;;;1.70;99.90;;;;;;5111326;28;20484;-60
2022/12/20 08:59:42;;;;;;;26.25;12.32;;;1.80;99.90;;;;;;5117778;28;20391;-60
2022/12/20 09:02:09;;;;;;;21.00;10.40;;;1.80;99.90;;;;;;5123011;28;20047;-60
2022/12/20 09:04:36;;;;;;;37.67;14.93;;;1.80;99.90;;;;;;5123366;28;20491;-60
2022/12/20 09:07:03;;;;;;;33.38;15.70;;;1.80;99.90;;;;;;5126528;28;20047;-61
2022/12/20 09:09:30;;;;;;;29.98;14.32;;;1.90;99.90;;;;;;5131541;28;20050;-60
2022/12/20 09:11:57;;;;;;;26.70;14.27;;;1.90;99.90;;;;;;5131630;28;20075;-60
2022/12/20 09:14:24;;;;;;;29.27;13.82;;;1.90;99.90;;;;;;5131603;28;20479;-60
2022/12/20 09:16:50;;;;;;;28.63;13.98;;;1.80;99.90;;;;;;5127603;28;20101;-60
2022/12/20 09:19:17;;;;;;;30.13;14.13;;;1.90;99.90;;;;;;5125861;28;20042;-60
2022/12/20 09:21:44;;;;;;;27.75;14.10;;;1.90;99.90;;;;;;5111748;28;20105;-60
2022/12/20 09:24:11;;;;;;;31.15;14.63;;;1.90;99.90;;;;;;5111479;28;20046;-60
2022/12/20 09:26:39;;;;;;;18.15;9.27;;;1.90;99.90;;;;;;5125392;28;20039;-60
2022/12/20 09:29:06;;;;;;;27.88;14.48;;;1.90;99.90;;;;;;5110799;28;20048;-60
2022/12/20 09:31:33;;;;;;;29.10;12.90;;;2.00;99.90;;;;;;5110078;28;20491;-60
2022/12/20 09:34:00;;;;;;;25.05;10.27;;;2.00;99.90;;;;;;5112752;28;20058;-60
2022/12/20 09:36:28;;;;;;;31.40;12.98;;;2.00;99.90;;;;;;5114782;28;20093;-60
2022/12/20 09:38:56;;;;;;;29.33;13.75;;;2.00;99.90;;;;;;5110936;28;20483;-60
2022/12/20 09:41:36;;;;;;;26.52;12.60;;;2.00;99.90;;;;;;5111094;28;20047;-60
2022/12/20 09:44:25;;;;;;;25.88;12.60;;;2.10;99.90;;;;;;5116865;28;20493;-61
2022/12/20 09:47:00;;;;;;;;;;;2.10;99.90;;;;;;5111150;28;20067;-60
2022/12/20 09:49:40;;;;;;;31.60;13.80;;;2.10;99.90;;;;;;5110913;28;20010;-60
2022/12/20 09:52:31;;;;;;;46.70;19.65;;;2.30;99.90;;;;;;5113530;28;20036;-60
2022/12/20 09:55:07;;;;;;;44.13;20.13;;;2.40;99.90;;;;;;5114847;28;20540;-61
2022/12/20 09:57:52;;;;;;;32.17;15.95;;;2.40;99.90;;;;;;5114300;28;20168;-61
2022/12/20 10:00:20;;;;;;;32.85;16.75;;;2.60;99.90;;;;;;5115499;27;20100;-60
2022/12/20 10:02:48;;;;;;;36.20;15.30;;;2.60;99.90;;;;;;5114077;27;20035;-60
2022/12/20 10:05:48;;;;;;;26.90;13.40;;;2.60;99.90;;;;;;5114572;28;20062;-60
2022/12/20 10:08:43;;;;;;;32.15;15.50;;;2.70;99.90;;;;;;5114119;28;20062;-60
2022/12/20 10:11:13;;;;;;;28.27;14.38;;;2.70;99.90;;;;;;5114331;28;20540;-60
2022/12/20 10:13:53;;;;;;;27.63;14.30;;;2.60;99.90;;;;;;5113089;28;20092;-60
2022/12/20 10:16:35;;;;;;;24.88;13.13;;;2.70;99.90;;;;;;5114196;28;20484;-61
2022/12/20 10:19:16;;;;;;;21.95;12.93;;;2.80;99.90;;;;;;5122113;27;20077;-61
2022/12/20 10:21:52;;;;;;;26.40;12.25;;;2.90;99.90;;;;;;5123350;27;20101;-60
2022/12/20 10:24:29;;;;;;;25.58;12.00;;;3.00;99.90;;;;;;5114224;28;20040;-60
2022/12/20 10:27:03;;;;;;;29.70;13.43;;;3.00;99.90;;;;;;5113056;28;20511;-60
2022/12/20 10:29:31;;;;;;;26.50;12.63;;;3.00;99.90;;;;;;5121126;27;20044;-61
2022/12/20 10:31:59;;;;;;;29.33;14.25;;;3.00;99.90;;;;;;5113310;28;20484;-60
2022/12/20 10:34:26;;;;;;;31.48;14.05;;;3.00;99.90;;;;;;5113945;28;20058;-60
2022/12/20 10:37:14;;;;;;;26.80;13.63;;;3.00;99.90;;;;;;5128952;27;20108;-61
2022/12/20 10:39:45;;;;;;;27.92;13.65;;;2.90;99.90;;;;;;5113186;28;20051;-60
2022/12/20 10:42:37;;;;;;;28.55;14.82;;;3.00;99.90;;;;;;5113423;28;20122;-60
2022/12/20 10:45:34;;;;;;;31.98;16.48;;;3.10;99.90;;;;;;5124548;27;20464;-60
2022/12/20 10:48:25;;;;;;;35.22;17.77;;;3.20;99.90;;;;;;5113923;28;20040;-60
2022/12/20 10:51:17;;;;;;;40.65;19.90;;;3.20;99.90;;;;;;5113938;28;20136;-60
2022/12/20 10:54:01;;;;;;;35.28;17.73;;;3.20;99.90;;;;;;5107595;27;20116;-60
2022/12/20 10:56:30;;;;;;;36.15;17.73;;;3.30;99.90;;;;;;5134204;27;20479;-60
2022/12/20 10:58:58;;;;;;;29.05;14.90;;;3.40;99.90;;;;;;5133896;27;20096;-60
2022/12/20 11:01:34;;;;;;;30.13;14.55;;;3.40;99.90;;;;;;5124138;27;20035;-60
2022/12/20 11:04:04;;;;;;;26.52;13.93;;;3.40;99.90;;;;;;5112800;28;20043;-60
2022/12/20 11:06:37;;;;;;;30.10;14.98;;;3.40;99.90;;;;;;5127241;27;20043;-60
2022/12/20 11:09:31;;;;;;;33.75;14.40;;;3.40;99.90;;;;;;5112935;28;20058;-60
2022/12/20 11:12:13;;;;;;;25.35;11.60;;;3.40;99.90;;;;;;5112518;28;20050;-60
2022/12/20 11:14:42;;;;;;;26.45;12.75;;;3.40;99.90;;;;;;5113244;27;20170;-60
2022/12/20 11:17:21;;;;;;;24.02;11.75;;;3.40;99.90;;;;;;5118955;27;20084;-61
2022/12/20 11:20:13;;;;;;;28.85;12.88;;;3.50;99.90;;;;;;5112770;28;20512;-60
2022/12/20 11:22:59;;;;;;;27.88;13.27;;;3.70;99.90;;;;;;5065876;27;20052;-60
2022/12/20 11:25:52;;;;;;;26.58;13.48;;;3.80;99.90;;;;;;5119847;27;20047;-61
2022/12/20 11:28:30;;;;;;;28.83;13.93;;;3.90;99.90;;;;;;5112858;28;20048;-60
2022/12/20 11:31:23;;;;;;;26.75;13.68;;;3.90;99.90;;;;;;5117402;27;20457;-61
2022/12/20 11:34:36;;;;;;;26.17;12.07;;;4.10;99.90;;;;;;5111687;28;20031;-61
2022/12/20 11:37:28;;;;;;;21.80;11.02;;;4.10;99.90;;;;;;5113047;28;20043;-60
2022/12/20 11:40:26;;;;;;;22.00;11.98;;;4.20;99.90;;;;;;5117584;27;20040;-61
2022/12/20 11:43:14;;;;;;;23.33;11.52;;;4.30;99.90;;;;;;5112187;28;20052;-60
2022/12/20 11:45:49;;;;;;;;;;;4.40;99.90;;;;;;5113169;28;20100;-60
2022/12/20 11:48:25;;;;;;;20.00;10.57;;;4.50;99.90;;;;;;5115947;27;19927;-61
2022/12/20 11:51:13;;;;;;;21.73;11.05;;;4.50;99.90;;;;;;5112358;28;20286;-61
2022/12/20 11:54:03;;;;;;;26.77;12.02;;;4.50;99.90;;;;;;5119168;27;20035;-60
2022/12/20 11:56:35;;;;;;;24.45;12.20;;;4.50;99.90;;;;;;5094156;28;20454;-60
2022/12/20 11:59:41;;;;;;;26.90;13.52;;;4.60;99.90;;;;;;5111752;28;20047;-61
2022/12/20 12:02:10;;;;;;;27.55;14.63;;;4.60;99.90;;;;;;5116122;27;20486;-61
2022/12/20 12:04:49;;;;;;;23.73;13.02;;;4.60;99.90;;;;;;5114205;27;20043;-60
2022/12/20 12:07:20;;;;;;;37.13;17.13;;;4.70;99.90;;;;;;5112049;28;20503;-61
2022/12/20 12:09:55;;;;;;;32.72;15.27;;;4.80;99.90;;;;;;5119077;27;20043;-61
2022/12/20 12:12:38;;;;;;;35.28;15.98;;;4.80;99.90;;;;;;5111646;28;20393;-60
2022/12/20 12:15:14;;;;;;;27.70;14.77;;;4.90;99.90;;;;;;5110484;28;20673;-61
2022/12/20 12:17:42;;;;;;;;;;;4.80;99.90;;;;;;5116045;27;20050;-61
2022/12/20 12:20:46;;;;;;;22.75;11.45;;;4.80;99.90;;;;;;5118827;27;19920;-61
2022/12/20 12:23:25;;;;;;;22.10;11.52;;;4.70;99.90;;;;;;5111343;28;20051;-60
2022/12/20 12:25:52;;;;;;;23.40;11.60;;;4.70;99.90;;;;;;5111949;28;20100;-61
2022/12/20 12:28:21;;;;;;;20.40;11.77;;;4.70;99.90;;;;;;5124023;27;20092;-60
2022/12/20 12:30:56;;;;;;;21.98;11.13;;;4.80;99.90;;;;;;5112280;28;20040;-61
2022/12/20 12:33:29;;;;;;;20.73;11.27;;;4.70;99.90;;;;;;5121676;27;20027;-60
2022/12/20 12:36:29;;;;;;;24.25;12.30;;;4.70;99.90;;;;;;5132224;27;20066;-61
2022/12/20 12:39:21;;;;;;;29.98;13.50;;;4.60;99.90;;;;;;5131374;27;20035;-60
2022/12/20 12:41:54;;;;;;;26.13;13.43;;;4.50;99.90;;;;;;5121915;27;20096;-61
2022/12/20 12:44:34;;;;;;;24.70;13.20;;;4.40;99.90;;;;;;5114395;28;20410;-60
2022/12/20 12:47:06;;;;;;;23.55;12.48;;;4.40;99.90;;;;;;5112017;28;20495;-60
2022/12/20 12:49:33;;;;;;;24.75;13.15;;;4.40;99.90;;;;;;5111825;28;20557;-61
2022/12/20 12:52:04;;;;;;;23.15;12.52;;;4.30;99.90;;;;;;5115756;27;20044;-61
2022/12/20 12:54:39;;;;;;;26.30;12.75;;;4.30;99.90;;;;;;5118008;27;20084;-60
2022/12/20 12:57:17;;;;;;;30.30;15.23;;;4.30;99.90;;;;;;5110016;28;20074;-60
2022/12/20 12:59:49;;;;;;;33.35;15.40;;;4.30;99.90;;;;;;5111587;28;20047;-61
2022/12/20 13:02:16;;;;;;;23.52;11.95;;;4.40;99.90;;;;;;5126201;28;20096;-60
2022/12/20 13:05:00;;;;;;;33.03;15.00;;;4.30;99.90;;;;;;5104844;28;20423;-61
2022/12/20 13:07:33;;;;;;;24.17;12.02;;;4.10;99.90;;;;;;5123168;28;20081;-61
2022/12/20 13:10:23;;;;;;;31.98;15.20;;;4.00;99.90;;;;;;5128572;28;20494;-61
2022/12/20 13:12:51;;;;;;;58.33;22.08;;;4.00;99.90;;;;;;5090547;28;20063;-61
2022/12/20 13:15:20;;;;;;;45.42;21.90;;;4.10;99.90;;;;;;5131078;28;20543;-60
2022/12/20 13:17:58;;;;;;;29.13;14.68;;;4.10;99.90;;;;;;5128389;28;20088;-61
2022/12/20 13:20:32;;;;;;;25.48;13.32;;;4.20;99.90;;;;;;5115028;28;20035;-61
2022/12/20 13:23:08;;;;;;;42.15;21.60;;;4.20;99.90;;;;;;5110568;28;20040;-60
2022/12/20 13:25:37;;;;;;;63.72;28.75;;;4.20;99.90;;;;;;5117362;27;20083;-60